Terminal Aerodrome Forecast
Issued by NWS

Home | Current Version | Previous Version | Text Only | Print | Product List | Glossary On
Versions: 1 2 3 4 5 6 7 8 9 10 11 12 13 14 15
331
FTUS46 KSEW 080542
TAFBLI
TAF
KBLI 080542Z 0806/0906 02013G20KT P6SM SKC
     FM081200 02020G30KT P6SM SCT200
     FM090000 04020G30KT P6SM SCT130 BKN200=

USA.gov is the U.S. government's official web portal to all federal, state and local government web resources and services.